sensor_id;sensor_type;location;lat;lon;timestamp;pressure;altitude;pressure_sealevel;temperature;humidity
46836;BME280;32573;51.290;6.926;2023-12-22T00:00:34;98773.59;;;6.66;100.00
46836;BME280;32573;51.290;6.926;2023-12-22T00:03:02;98765.78;;;6.68;100.00
46836;BME280;32573;51.290;6.926;2023-12-22T00:05:32;98764.94;;;6.67;100.00
46836;BME280;32573;51.290;6.926;2023-12-22T00:08:00;98754.47;;;6.64;100.00
46836;BME280;32573;51.290;6.926;2023-12-22T00:10:28;98752.78;;;6.66;100.00
46836;BME280;32573;51.290;6.926;2023-12-22T00:12:57;98764.88;;;6.66;100.00
46836;BME280;32573;51.290;6.926;2023-12-22T00:15:25;98754.53;;;6.67;100.00
46836;BME280;32573;51.290;6.926;2023-12-22T00:17:53;98750.19;;;6.68;100.00
46836;BME280;32573;51.290;6.926;2023-12-22T00:20:22;98771.00;;;6.66;100.00
46836;BME280;32573;51.290;6.926;2023-12-22T00:22:51;98790.94;;;6.67;100.00
46836;BME280;32573;51.290;6.926;2023-12-22T00:25:20;98788.38;;;6.69;100.00
46836;BME280;32573;51.290;6.926;2023-12-22T00:27:48;98791.84;;;6.69;100.00
46836;BME280;32573;51.290;6.926;2023-12-22T00:30:16;98792.66;;;6.67;100.00
46836;BME280;32573;51.290;6.926;2023-12-22T00:32:45;98798.72;;;6.67;100.00
46836;BME280;32573;51.290;6.926;2023-12-22T00:35:13;98790.06;;;6.68;100.00
46836;BME280;32573;51.290;6.926;2023-12-22T00:37:41;98780.53;;;6.67;100.00
46836;BME280;32573;51.290;6.926;2023-12-22T00:40:11;98793.56;;;6.69;100.00
46836;BME280;32573;51.290;6.926;2023-12-22T00:42:40;98792.66;;;6.68;100.00
46836;BME280;32573;51.290;6.926;2023-12-22T00:45:09;98797.09;;;6.73;100.00
46836;BME280;32573;51.290;6.926;2023-12-22T00:47:37;98792.81;;;6.75;100.00
46836;BME280;32573;51.290;6.926;2023-12-22T00:50:06;98794.56;;;6.76;100.00
46836;BME280;32573;51.290;6.926;2023-12-22T00:52:35;98794.59;;;6.77;100.00
46836;BME280;32573;51.290;6.926;2023-12-22T00:55:04;98825.81;;;6.79;100.00
46836;BME280;32573;51.290;6.926;2023-12-22T00:57:33;98815.50;;;6.82;100.00
46836;BME280;32573;51.290;6.926;2023-12-22T01:00:02;98821.56;;;6.82;100.00
46836;BME280;32573;51.290;6.926;2023-12-22T01:02:31;98810.34;;;6.85;100.00
46836;BME280;32573;51.290;6.926;2023-12-22T01:05:00;98813.00;;;6.88;100.00
46836;BME280;32573;51.290;6.926;2023-12-22T01:07:28;98814.75;;;6.87;100.00
46836;BME280;32573;51.290;6.926;2023-12-22T01:09:57;98794.84;;;6.89;100.00
46836;BME280;32573;51.290;6.926;2023-12-22T01:12:28;98799.22;;;6.92;100.00
46836;BME280;32573;51.290;6.926;2023-12-22T01:14:58;98816.56;;;6.93;100.00
46836;BME280;32573;51.290;6.926;2023-12-22T01:17:26;98823.56;;;6.94;100.00
46836;BME280;32573;51.290;6.926;2023-12-22T01:19:55;98819.22;;;6.96;100.00
46836;BME280;32573;51.290;6.926;2023-12-22T01:22:23;98775.09;;;6.99;100.00
46836;BME280;32573;51.290;6.926;2023-12-22T01:24:52;98779.44;;;7.00;100.00
46836;BME280;32573;51.290;6.926;2023-12-22T01:27:20;98800.25;;;7.00;100.00
46836;BME280;32573;51.290;6.926;2023-12-22T01:29:48;98789.00;;;7.01;100.00
46836;BME280;32573;51.290;6.926;2023-12-22T01:32:18;98793.38;;;7.02;100.00
46836;BME280;32573;51.290;6.926;2023-12-22T01:34:46;98802.00;;;7.01;100.00
46836;BME280;32573;51.290;6.926;2023-12-22T01:37:14;98808.09;;;7.02;100.00
46836;BME280;32573;51.290;6.926;2023-12-22T01:39:43;98819.38;;;7.04;100.00
46836;BME280;32573;51.290;6.926;2023-12-22T01:42:11;98822.88;;;7.04;100.00
46836;BME280;32573;51.290;6.926;2023-12-22T01:44:39;98829.78;;;7.02;100.00
46836;BME280;32573;51.290;6.926;2023-12-22T01:47:08;98837.59;;;7.02;100.00
46836;BME280;32573;51.290;6.926;2023-12-22T01:49:37;98830.72;;;7.06;100.00
46836;BME280;32573;51.290;6.926;2023-12-22T01:52:06;98844.63;;;7.06;100.00
46836;BME280;32573;51.290;6.926;2023-12-22T01:54:35;98850.69;;;7.08;100.00
46836;BME280;32573;51.290;6.926;2023-12-22T01:57:04;98831.66;;;7.09;100.00
46836;BME280;32573;51.290;6.926;2023-12-22T01:59:33;98846.44;;;7.12;100.00
46836;BME280;32573;51.290;6.926;2023-12-22T02:02:02;98841.25;;;7.12;100.00
46836;BME280;32573;51.290;6.926;2023-12-22T02:04:31;98868.94;;;7.10;100.00
46836;BME280;32573;51.290;6.926;2023-12-22T02:07:02;98862.88;;;7.09;100.00
46836;BME280;32573;51.290;6.926;2023-12-22T02:09:30;98879.31;;;7.08;100.00
46836;BME280;32573;51.290;6.926;2023-12-22T02:11:59;98854.09;;;7.04;100.00
46836;BME280;32573;51.290;6.926;2023-12-22T02:14:27;98874.78;;;6.98;100.00
46836;BME280;32573;51.290;6.926;2023-12-22T02:17:06;98886.75;;;6.90;100.00
46836;BME280;32573;51.290;6.926;2023-12-22T02:19:42;98918.59;;;6.80;100.00
46836;BME280;32573;51.290;6.926;2023-12-22T02:22:12;98875.88;;;6.68;100.00
46836;BME280;32573;51.290;6.926;2023-12-22T02:24:42;98880.03;;;6.60;100.00
46836;BME280;32573;51.290;6.926;2023-12-22T02:27:15;98901.50;;;6.53;100.00
46836;BME280;32573;51.290;6.926;2023-12-22T02:29:49;98893.66;;;6.50;100.00
46836;BME280;32573;51.290;6.926;2023-12-22T02:32:32;98885.78;;;6.47;100.00
46836;BME280;32573;51.290;6.926;2023-12-22T02:35:04;98878.81;;;6.46;100.00
46836;BME280;32573;51.290;6.926;2023-12-22T02:37:36;98880.44;;;6.41;100.00
46836;BME280;32573;51.290;6.926;2023-12-22T02:40:07;98887.31;;;6.39;100.00
46836;BME280;32573;51.290;6.926;2023-12-22T02:42:36;98901.16;;;6.38;100.00
46836;BME280;32573;51.290;6.926;2023-12-22T02:45:05;98895.97;;;6.38;100.00
46836;BME280;32573;51.290;6.926;2023-12-22T02:47:34;98888.13;;;6.36;100.00
46836;BME280;32573;51.290;6.926;2023-12-22T02:50:02;98868.22;;;6.37;100.00
46836;BME280;32573;51.290;6.926;2023-12-22T02:52:31;98871.69;;;6.37;100.00
46836;BME280;32573;51.290;6.926;2023-12-22T02:55:00;98870.78;;;6.35;100.00
46836;BME280;32573;51.290;6.926;2023-12-22T02:57:29;98869.03;;;6.34;100.00
46836;BME280;32573;51.290;6.926;2023-12-22T02:59:58;98875.09;;;6.35;100.00
46836;BME280;32573;51.290;6.926;2023-12-22T03:02:26;98869.91;;;6.35;100.00
46836;BME280;32573;51.290;6.926;2023-12-22T03:04:55;98855.16;;;6.34;100.00
46836;BME280;32573;51.290;6.926;2023-12-22T03:07:23;98863.00;;;6.35;100.00
46836;BME280;32573;51.290;6.926;2023-12-22T03:09:52;98852.63;;;6.37;100.00
46836;BME280;32573;51.290;6.926;2023-12-22T03:12:20;98838.78;;;6.38;100.00
46836;BME280;32573;51.290;6.926;2023-12-22T03:14:49;98883.03;;;6.39;100.00
46836;BME280;32573;51.290;6.926;2023-12-22T03:17:18;98863.09;;;6.40;100.00
46836;BME280;32573;51.290;6.926;2023-12-22T03:19:46;98857.91;;;6.40;100.00
46836;BME280;32573;51.290;6.926;2023-12-22T03:22:14;98857.97;;;6.43;100.00
46836;BME280;32573;51.290;6.926;2023-12-22T03:24:43;98874.41;;;6.42;100.00
46836;BME280;32573;51.290;6.926;2023-12-22T03:27:11;98842.38;;;6.43;100.00
46836;BME280;32573;51.290;6.926;2023-12-22T03:29:43;98839.78;;;6.43;100.00
46836;BME280;32573;51.290;6.926;2023-12-22T03:32:12;98826.78;;;6.43;100.00
46836;BME280;32573;51.290;6.926;2023-12-22T03:34:41;98850.13;;;6.41;100.00
46836;BME280;32573;51.290;6.926;2023-12-22T03:37:09;98851.91;;;6.44;100.00
46836;BME280;32573;51.290;6.926;2023-12-22T03:39:37;98854.50;;;6.44;100.00
46836;BME280;32573;51.290;6.926;2023-12-22T03:42:05;98853.63;;;6.43;100.00
46836;BME280;32573;51.290;6.926;2023-12-22T03:44:34;98844.97;;;6.43;100.00
46836;BME280;32573;51.290;6.926;2023-12-22T03:47:02;98853.56;;;6.40;100.00
46836;BME280;32573;51.290;6.926;2023-12-22T03:49:32;98870.91;;;6.40;100.00
46836;BME280;32573;51.290;6.926;2023-12-22T03:52:00;98865.69;;;6.40;100.00
46836;BME280;32573;51.290;6.926;2023-12-22T03:54:28;98863.06;;;6.38;100.00
46836;BME280;32573;51.290;6.926;2023-12-22T03:56:57;98861.31;;;6.39;100.00
46836;BME280;32573;51.290;6.926;2023-12-22T03:59:27;98856.97;;;6.38;100.00
46836;BME280;32573;51.290;6.926;2023-12-22T04:01:56;98854.38;;;6.38;100.00
46836;BME280;32573;51.290;6.926;2023-12-22T04:04:25;98849.19;;;6.38;100.00
46836;BME280;32573;51.290;6.926;2023-12-22T04:06:56;98854.38;;;6.38;100.00
46836;BME280;32573;51.290;6.926;2023-12-22T04:09:24;98854.38;;;6.38;100.00
46836;BME280;32573;51.290;6.926;2023-12-22T04:11:52;98869.97;;;6.38;100.00
46836;BME280;32573;51.290;6.926;2023-12-22T04:14:21;98858.72;;;6.37;100.00
46836;BME280;32573;51.290;6.926;2023-12-22T04:16:49;98876.91;;;6.37;100.00
46836;BME280;32573;51.290;6.926;2023-12-22T04:19:20;98871.72;;;6.39;100.00
46836;BME280;32573;51.290;6.926;2023-12-22T04:21:48;98857.91;;;6.40;100.00
46836;BME280;32573;51.290;6.926;2023-12-22T04:24:18;98849.25;;;6.41;100.00
46836;BME280;32573;51.290;6.926;2023-12-22T04:26:46;98844.06;;;6.41;100.00
46836;BME280;32573;51.290;6.926;2023-12-22T04:29:14;98849.25;;;6.41;100.00
46836;BME280;32573;51.290;6.926;2023-12-22T04:31:42;98837.13;;;6.40;100.00
46836;BME280;32573;51.290;6.926;2023-12-22T04:34:13;98847.50;;;6.40;100.00
46836;BME280;32573;51.290;6.926;2023-12-22T04:36:43;98837.13;;;6.40;100.00
46836;BME280;32573;51.290;6.926;2023-12-22T04:39:11;98838.91;;;6.42;100.00
46836;BME280;32573;51.290;6.926;2023-12-22T04:41:40;98836.31;;;6.42;100.00
46836;BME280;32573;51.290;6.926;2023-12-22T04:44:09;98830.31;;;6.45;100.00
46836;BME280;32573;51.290;6.926;2023-12-22T04:46:37;98841.63;;;6.47;100.00
46836;BME280;32573;51.290;6.926;2023-12-22T04:49:05;98844.22;;;6.48;100.00
46836;BME280;32573;51.290;6.926;2023-12-22T04:51:34;98827.81;;;6.50;100.00
46836;BME280;32573;51.290;6.926;2023-12-22T04:54:02;98833.00;;;6.50;100.00
46836;BME280;32573;51.290;6.926;2023-12-22T04:56:30;98847.75;;;6.51;100.00
46836;BME280;32573;51.290;6.926;2023-12-22T04:59:00;98850.38;;;6.52;100.00
46836;BME280;32573;51.290;6.926;2023-12-22T05:01:28;98865.13;;;6.53;100.00
46836;BME280;32573;51.290;6.926;2023-12-22T05:03:57;98860.84;;;6.55;100.00
46836;BME280;32573;51.290;6.926;2023-12-22T05:06:25;98873.91;;;6.58;100.00
46836;BME280;32573;51.290;6.926;2023-12-22T05:08:53;98881.75;;;6.61;100.00
46836;BME280;32573;51.290;6.926;2023-12-22T05:11:23;98903.47;;;6.63;100.00
46836;BME280;32573;51.290;6.926;2023-12-22T05:13:51;98892.28;;;6.66;100.00
46836;BME280;32573;51.290;6.926;2023-12-22T05:16:21;98894.97;;;6.70;100.00
46836;BME280;32573;51.290;6.926;2023-12-22T05:18:49;98907.22;;;6.75;100.00
46836;BME280;32573;51.290;6.926;2023-12-22T05:21:17;98902.06;;;6.78;100.00
46836;BME280;32573;51.290;6.926;2023-12-22T05:23:45;98896.94;;;6.81;100.00
46836;BME280;32573;51.290;6.926;2023-12-22T05:26:16;98895.25;;;6.83;100.00
46836;BME280;32573;51.290;6.926;2023-12-22T05:28:45;98880.53;;;6.83;100.00
46836;BME280;32573;51.290;6.926;2023-12-22T05:31:13;98890.13;;;6.86;100.00
46836;BME280;32573;51.290;6.926;2023-12-22T05:33:43;98910.09;;;6.88;100.00
46836;BME280;32573;51.290;6.926;2023-12-22T05:36:11;98920.50;;;6.88;100.00
46836;BME280;32573;51.290;6.926;2023-12-22T05:38:40;98930.97;;;6.90;100.00
46836;BME280;32573;51.290;6.926;2023-12-22T05:41:08;98941.25;;;6.85;100.00
46836;BME280;32573;51.290;6.926;2023-12-22T05:43:36;98939.47;;;6.83;100.00
46836;BME280;32573;51.290;6.926;2023-12-22T05:46:04;98934.25;;;6.83;100.00
46836;BME280;32573;51.290;6.926;2023-12-22T05:48:33;98958.53;;;6.82;100.00
46836;BME280;32573;51.290;6.926;2023-12-22T05:51:03;98935.94;;;6.79;100.00
46836;BME280;32573;51.290;6.926;2023-12-22T05:53:34;98932.41;;;6.77;100.00
46836;BME280;32573;51.290;6.926;2023-12-22T05:56:03;98928.88;;;6.75;100.00
46836;BME280;32573;51.290;6.926;2023-12-22T05:58:31;98931.44;;;6.74;100.00
46836;BME280;32573;51.290;6.926;2023-12-22T06:00:59;98933.16;;;6.72;100.00
46836;BME280;32573;51.290;6.926;2023-12-22T06:03:27;98932.25;;;6.71;100.00
46836;BME280;32573;51.290;6.926;2023-12-22T06:05:56;98925.31;;;6.70;100.00
46836;BME280;32573;51.290;6.926;2023-12-22T06:08:25;98927.03;;;6.69;100.00
46836;BME280;32573;51.290;6.926;2023-12-22T06:10:54;98930.50;;;6.70;100.00
46836;BME280;32573;51.290;6.926;2023-12-22T06:13:22;98926.19;;;6.70;100.00
46836;BME280;32573;51.290;6.926;2023-12-22T06:15:51;98926.19;;;6.70;100.00
46836;BME280;32573;51.290;6.926;2023-12-22T06:18:19;98927.97;;;6.72;100.00
46836;BME280;32573;51.290;6.926;2023-12-22T06:20:48;98929.69;;;6.73;100.00
46836;BME280;32573;51.290;6.926;2023-12-22T06:23:16;98931.44;;;6.74;100.00
46836;BME280;32573;51.290;6.926;2023-12-22T06:25:46;98926.28;;;6.75;100.00
46836;BME280;32573;51.290;6.926;2023-12-22T06:28:15;98928.94;;;6.77;100.00
46836;BME280;32573;51.290;6.926;2023-12-22T06:30:44;98922.88;;;6.78;100.00
46836;BME280;32573;51.290;6.926;2023-12-22T06:33:14;98928.94;;;6.78;100.00
46836;BME280;32573;51.290;6.926;2023-12-22T06:35:42;98931.56;;;6.78;100.00
46836;BME280;32573;51.290;6.926;2023-12-22T06:38:12;98928.94;;;6.78;100.00
46836;BME280;32573;51.290;6.926;2023-12-22T06:40:40;98940.22;;;6.79;100.00
46836;BME280;32573;51.290;6.926;2023-12-22T06:43:10;98942.00;;;6.80;100.00
46836;BME280;32573;51.290;6.926;2023-12-22T06:45:38;98944.63;;;6.81;100.00
46836;BME280;32573;51.290;6.926;2023-12-22T06:48:07;98942.88;;;6.80;100.00
46836;BME280;32573;51.290;6.926;2023-12-22T06:50:37;98935.13;;;6.82;100.00
46836;BME280;32573;51.290;6.926;2023-12-22T06:53:06;98934.25;;;6.83;100.00
46836;BME280;32573;51.290;6.926;2023-12-22T06:55:48;98943.81;;;6.84;100.00
46836;BME280;32573;51.290;6.926;2023-12-22T06:58:17;98950.78;;;6.85;100.00
46836;BME280;32573;51.290;6.926;2023-12-22T07:00:48;98944.72;;;6.84;100.00
46836;BME280;32573;51.290;6.926;2023-12-22T07:03:16;98938.59;;;6.84;100.00
46836;BME280;32573;51.290;6.926;2023-12-22T07:05:46;98942.97;;;6.85;100.00
46836;BME280;32573;51.290;6.926;2023-12-22T07:08:15;98929.97;;;6.85;100.00
46836;BME280;32573;51.290;6.926;2023-12-22T07:10:43;98926.53;;;6.86;100.00
46836;BME280;32573;51.290;6.926;2023-12-22T07:13:12;98917.91;;;6.87;100.00
46836;BME280;32573;51.290;6.926;2023-12-22T07:15:42;98910.19;;;6.91;100.00
46836;BME280;32573;51.290;6.926;2023-12-22T07:18:10;98929.28;;;6.94;100.00
46836;BME280;32573;51.290;6.926;2023-12-22T07:20:40;98918.06;;;6.96;100.00
46836;BME280;32573;51.290;6.926;2023-12-22T07:23:09;98924.25;;;7.01;100.00
46836;BME280;32573;51.290;6.926;2023-12-22T07:25:38;98929.56;;;7.06;100.00
46836;BME280;32573;51.290;6.926;2023-12-22T07:28:07;98907.09;;;7.09;100.00
46836;BME280;32573;51.290;6.926;2023-12-22T07:30:35;98912.41;;;7.14;100.00
46836;BME280;32573;51.290;6.926;2023-12-22T07:33:05;98906.41;;;7.17;100.00
46836;BME280;32573;51.290;6.926;2023-12-22T07:35:33;98916.00;;;7.21;100.00
46836;BME280;32573;51.290;6.926;2023-12-22T07:38:02;98924.78;;;7.26;100.00
46836;BME280;32573;51.290;6.926;2023-12-22T07:40:30;98917.88;;;7.28;100.00
46836;BME280;32573;51.290;6.926;2023-12-22T07:42:59;98928.41;;;7.32;100.00
46836;BME280;32573;51.290;6.926;2023-12-22T07:45:28;98930.19;;;7.35;100.00
46836;BME280;32573;51.290;6.926;2023-12-22T07:47:56;98922.44;;;7.38;100.00
46836;BME280;32573;51.290;6.926;2023-12-22T07:50:28;98924.25;;;7.42;100.00
46836;BME280;32573;51.290;6.926;2023-12-22T07:52:57;98915.69;;;7.46;100.00
46836;BME280;32573;51.290;6.926;2023-12-22T07:55:28;98914.84;;;7.49;100.00
46836;BME280;32573;51.290;6.926;2023-12-22T07:57:57;98918.34;;;7.51;100.00
46836;BME280;32573;51.290;6.926;2023-12-22T08:00:25;98926.25;;;7.55;100.00
46836;BME280;32573;51.290;6.926;2023-12-22T08:02:55;98930.63;;;7.58;100.00
46836;BME280;32573;51.290;6.926;2023-12-22T08:05:23;98932.41;;;7.61;100.00
46836;BME280;32573;51.290;6.926;2023-12-22T08:07:53;98930.78;;;7.64;100.00
46836;BME280;32573;51.290;6.926;2023-12-22T08:10:21;98936.00;;;7.66;100.00
46836;BME280;32573;51.290;6.926;2023-12-22T08:12:49;98919.53;;;7.67;100.00
46836;BME280;32573;51.290;6.926;2023-12-22T08:15:18;98931.75;;;7.69;100.00
46836;BME280;32573;51.290;6.926;2023-12-22T08:17:59;98935.25;;;7.71;100.00
46836;BME280;32573;51.290;6.926;2023-12-22T08:20:27;98924.84;;;7.73;100.00
46836;BME280;32573;51.290;6.926;2023-12-22T08:23:04;98932.72;;;7.76;100.00
46836;BME280;32573;51.290;6.926;2023-12-22T08:25:38;98931.88;;;7.77;100.00
46836;BME280;32573;51.290;6.926;2023-12-22T08:28:08;98942.31;;;7.78;100.00
46836;BME280;32573;51.290;6.926;2023-12-22T08:30:36;98947.56;;;7.80;100.00
46836;BME280;32573;51.290;6.926;2023-12-22T08:33:05;98938.06;;;7.84;100.00
46836;BME280;32573;51.290;6.926;2023-12-22T08:35:33;98951.13;;;7.85;100.00
46836;BME280;32573;51.290;6.926;2023-12-22T08:38:03;98947.75;;;7.89;100.00
46836;BME280;32573;51.290;6.926;2023-12-22T08:40:32;98945.16;;;7.91;100.00
46836;BME280;32573;51.290;6.926;2023-12-22T08:43:00;98940.84;;;7.93;100.00
46836;BME280;32573;51.290;6.926;2023-12-22T08:45:29;98940.00;;;7.94;100.00
46836;BME280;32573;51.290;6.926;2023-12-22T08:47:57;98942.63;;;7.95;100.00
46836;BME280;32573;51.290;6.926;2023-12-22T08:50:26;98934.84;;;7.98;100.00
46836;BME280;32573;51.290;6.926;2023-12-22T08:52:54;98941.84;;;7.99;100.00
46836;BME280;32573;51.290;6.926;2023-12-22T08:55:24;98932.34;;;8.02;100.00
46836;BME280;32573;51.290;6.926;2023-12-22T08:57:52;98936.72;;;8.04;100.00
46836;BME280;32573;51.290;6.926;2023-12-22T09:00:29;98921.97;;;8.06;100.00
46836;BME280;32573;51.290;6.926;2023-12-22T09:02:57;98922.88;;;8.08;100.00
46836;BME280;32573;51.290;6.926;2023-12-22T09:05:25;98912.53;;;8.11;100.00
46836;BME280;32573;51.290;6.926;2023-12-22T09:07:54;98916.91;;;8.14;100.00
46836;BME280;32573;51.290;6.926;2023-12-22T09:10:24;98907.38;;;8.16;100.00
46836;BME280;32573;51.290;6.926;2023-12-22T09:12:52;98907.44;;;8.19;100.00
46836;BME280;32573;51.290;6.926;2023-12-22T09:15:23;98900.50;;;8.21;100.00
46836;BME280;32573;51.290;6.926;2023-12-22T09:17:53;98894.47;;;8.22;100.00
46836;BME280;32573;51.290;6.926;2023-12-22T09:20:23;98886.69;;;8.25;100.00
46836;BME280;32573;51.290;6.926;2023-12-22T09:22:51;98895.41;;;8.27;100.00
46836;BME280;32573;51.290;6.926;2023-12-22T09:25:20;98878.94;;;8.30;100.00
46836;BME280;32573;51.290;6.926;2023-12-22T09:27:49;98878.97;;;8.31;100.00
46836;BME280;32573;51.290;6.926;2023-12-22T09:30:18;98866.81;;;8.33;100.00
46836;BME280;32573;51.290;6.926;2023-12-22T09:32:46;98870.31;;;8.35;100.00
46836;BME280;32573;51.290;6.926;2023-12-22T09:35:15;98875.59;;;8.37;100.00
46836;BME280;32573;51.290;6.926;2023-12-22T09:37:44;98878.25;;;8.40;100.00
46836;BME280;32573;51.290;6.926;2023-12-22T09:40:12;98866.97;;;8.41;100.00
46836;BME280;32573;51.290;6.926;2023-12-22T09:42:41;98857.44;;;8.43;100.00
46836;BME280;32573;51.290;6.926;2023-12-22T09:45:12;98850.50;;;8.43;100.00
46836;BME280;32573;51.290;6.926;2023-12-22T09:47:45;98854.88;;;8.45;100.00
46836;BME280;32573;51.290;6.926;2023-12-22T09:50:15;98853.16;;;8.47;100.00
46836;BME280;32573;51.290;6.926;2023-12-22T09:52:43;98851.47;;;8.49;100.00
46836;BME280;32573;51.290;6.926;2023-12-22T09:55:13;98849.72;;;8.51;100.00
46836;BME280;32573;51.290;6.926;2023-12-22T09:57:42;98835.00;;;8.53;100.00
46836;BME280;32573;51.290;6.926;2023-12-22T10:00:13;98852.41;;;8.54;100.00
46836;BME280;32573;51.290;6.926;2023-12-22T10:02:42;98845.47;;;8.56;100.00
46836;BME280;32573;51.290;6.926;2023-12-22T10:05:12;98846.34;;;8.58;100.00
46836;BME280;32573;51.290;6.926;2023-12-22T10:07:41;98850.75;;;8.59;100.00
46836;BME280;32573;51.290;6.926;2023-12-22T10:10:12;98843.78;;;8.61;100.00
46836;BME280;32573;51.290;6.926;2023-12-22T10:12:41;98836.84;;;8.60;100.00
46836;BME280;32573;51.290;6.926;2023-12-22T10:15:14;98840.34;;;8.63;100.00
46836;BME280;32573;51.290;6.926;2023-12-22T10:17:42;98836.91;;;8.66;100.00
46836;BME280;32573;51.290;6.926;2023-12-22T10:20:11;98846.53;;;8.69;100.00
46836;BME280;32573;51.290;6.926;2023-12-22T10:22:39;98848.28;;;8.70;100.00
46836;BME280;32573;51.290;6.926;2023-12-22T10:25:08;98833.53;;;8.72;100.00
46836;BME280;32573;51.290;6.926;2023-12-22T10:27:37;98837.03;;;8.74;100.00
46836;BME280;32573;51.290;6.926;2023-12-22T10:30:06;98841.41;;;8.76;100.00
46836;BME280;32573;51.290;6.926;2023-12-22T10:32:39;98842.28;;;8.78;100.00
46836;BME280;32573;51.290;6.926;2023-12-22T10:35:08;98849.28;;;8.79;100.00
46836;BME280;32573;51.290;6.926;2023-12-22T10:37:37;98839.75;;;8.81;100.00
46836;BME280;32573;51.290;6.926;2023-12-22T10:40:08;98824.97;;;8.82;100.00
46836;BME280;32573;51.290;6.926;2023-12-22T10:42:36;98822.34;;;8.83;100.00
46836;BME280;32573;51.290;6.926;2023-12-22T10:45:06;98818.03;;;8.85;100.00
46836;BME280;32573;51.290;6.926;2023-12-22T10:47:35;98822.41;;;8.87;100.00
46836;BME280;32573;51.290;6.926;2023-12-22T10:50:05;98816.28;;;8.86;100.00
46836;BME280;32573;51.290;6.926;2023-12-22T10:52:34;98817.19;;;8.87;100.00
46836;BME280;32573;51.290;6.926;2023-12-22T10:55:03;98813.72;;;8.88;100.00
46836;BME280;32573;51.290;6.926;2023-12-22T10:57:32;98806.75;;;8.87;100.00
46836;BME280;32573;51.290;6.926;2023-12-22T11:00:06;98825.03;;;8.87;100.00
46836;BME280;32573;51.290;6.926;2023-12-22T11:02:39;98821.53;;;8.88;100.00
46836;BME280;32573;51.290;6.926;2023-12-22T11:05:11;98818.94;;;8.88;100.00
46836;BME280;32573;51.290;6.926;2023-12-22T11:07:41;98810.28;;;8.89;100.00
46836;BME280;32573;51.290;6.926;2023-12-22T11:10:14;98815.53;;;8.92;100.00
46836;BME280;32573;51.290;6.926;2023-12-22T11:12:46;98813.81;;;8.94;100.00
46836;BME280;32573;51.290;6.926;2023-12-22T11:15:16;98826.00;;;8.95;100.00
46836;BME280;32573;51.290;6.926;2023-12-22T11:17:46;98829.50;;;8.97;100.00
46836;BME280;32573;51.290;6.926;2023-12-22T11:20:18;98825.19;;;8.99;100.00
46836;BME280;32573;51.290;6.926;2023-12-22T11:22:48;98824.34;;;9.01;100.00
46836;BME280;32573;51.290;6.926;2023-12-22T11:25:19;98821.72;;;9.03;100.00
46836;BME280;32573;51.290;6.926;2023-12-22T11:27:52;98821.75;;;9.06;100.00
46836;BME280;32573;51.290;6.926;2023-12-22T11:30:21;98820.06;;;9.08;100.00
46836;BME280;32573;51.290;6.926;2023-12-22T11:32:50;98825.31;;;9.10;100.00
46836;BME280;32573;51.290;6.926;2023-12-22T11:35:21;98821.84;;;9.12;100.00
46836;BME280;32573;51.290;6.926;2023-12-22T11:38:01;98819.28;;;9.15;100.00
46836;BME280;32573;51.290;6.926;2023-12-22T11:40:29;98819.28;;;9.17;100.00
46836;BME280;32573;51.290;6.926;2023-12-22T11:43:00;98822.81;;;9.20;100.00
46836;BME280;32573;51.290;6.926;2023-12-22T11:45:30;98807.13;;;9.20;100.00
46836;BME280;32573;51.290;6.926;2023-12-22T11:48:05;98816.78;;;9.24;100.00
46836;BME280;32573;51.290;6.926;2023-12-22T11:50:36;98810.72;;;9.28;100.00
46836;BME280;32573;51.290;6.926;2023-12-22T11:53:23;98802.03;;;9.29;100.00
46836;BME280;32573;51.290;6.926;2023-12-22T11:55:59;98810.78;;;9.35;100.00
46836;BME280;32573;51.290;6.926;2023-12-22T11:58:35;98809.94;;;9.37;100.00
46836;BME280;32573;51.290;6.926;2023-12-22T12:01:06;98803.00;;;9.39;100.00
46836;BME280;32573;51.290;6.926;2023-12-22T12:03:41;98802.16;;;9.42;100.00
46836;BME280;32573;51.290;6.926;2023-12-22T12:06:14;98795.22;;;9.44;100.00
46836;BME280;32573;51.290;6.926;2023-12-22T12:08:43;98792.59;;;9.45;100.00
46836;BME280;32573;51.290;6.926;2023-12-22T12:11:12;98784.81;;;9.47;100.00
46836;BME280;32573;51.290;6.926;2023-12-22T12:13:43;98793.53;;;9.49;100.00
46836;BME280;32573;51.290;6.926;2023-12-22T12:16:13;98777.00;;;9.52;100.00
46836;BME280;32573;51.290;6.926;2023-12-22T12:18:41;98780.53;;;9.54;100.00
46836;BME280;32573;51.290;6.926;2023-12-22T12:21:12;98799.66;;;9.54;100.00
46836;BME280;32573;51.290;6.926;2023-12-22T12:23:41;98795.34;;;9.56;100.00
46836;BME280;32573;51.290;6.926;2023-12-22T12:26:13;98804.03;;;9.58;100.00
46836;BME280;32573;51.290;6.926;2023-12-22T12:28:45;98800.59;;;9.61;100.00
46836;BME280;32573;51.290;6.926;2023-12-22T12:31:14;98795.38;;;9.62;100.00
46836;BME280;32573;51.290;6.926;2023-12-22T12:33:43;98801.50;;;9.66;100.00
46836;BME280;32573;51.290;6.926;2023-12-22T12:36:15;98784.09;;;9.68;100.00
46836;BME280;32573;51.290;6.926;2023-12-22T12:38:48;98786.78;;;9.71;100.00
46836;BME280;32573;51.290;6.926;2023-12-22T12:41:29;98781.53;;;9.72;100.00
46836;BME280;32573;51.290;6.926;2023-12-22T12:44:03;98773.72;;;9.76;100.00
46836;BME280;32573;51.290;6.926;2023-12-22T12:46:32;98763.31;;;9.79;100.00
46836;BME280;32573;51.290;6.926;2023-12-22T12:49:04;98770.31;;;9.81;100.00
46836;BME280;32573;51.290;6.926;2023-12-22T12:51:38;98771.19;;;9.85;100.00
46836;BME280;32573;51.290;6.926;2023-12-22T12:54:08;98769.47;;;9.87;100.00
46836;BME280;32573;51.290;6.926;2023-12-22T12:56:38;98778.22;;;9.89;100.00
46836;BME280;32573;51.290;6.926;2023-12-22T12:59:08;98760.81;;;9.91;100.00
46836;BME280;32573;51.290;6.926;2023-12-22T13:01:39;98764.28;;;9.93;100.00
46836;BME280;32573;51.290;6.926;2023-12-22T13:04:08;98769.53;;;9.94;100.00
46836;BME280;32573;51.290;6.926;2023-12-22T13:06:44;98752.09;;;9.95;100.00
46836;BME280;32573;51.290;6.926;2023-12-22T13:09:12;98766.94;;;9.96;100.00
46836;BME280;32573;51.290;6.926;2023-12-22T13:11:42;98778.25;;;9.97;100.00